Time;durP1;ratioP1;P1;durP2;ratioP2;P2;SDS_P1;SDS_P2;PMS_P1;PMS_P2;Temp;Humidity;BMP_temperature;BMP_pressure;BME280_temperature;BME280_humidity;BME280_pressure;Samples;Min_cycle;Max_cycle;Signal;HPM_P1;HPM_P2
2022/01/25 00:09:34;;;;;;;23.27;12.30;;;-0.30;99.90;;;;;;5109677;28;20164;-75
2022/01/25 00:31:10;;;;;;;25.15;12.88;;;-0.30;99.90;;;;;;5110434;28;20261;-75
2022/01/25 00:33:37;;;;;;;27.85;12.43;;;-0.30;99.90;;;;;;5124686;28;20217;-75
2022/01/25 00:36:06;;;;;;;22.98;12.40;;;-0.30;99.90;;;;;;5112154;28;20220;-75
2022/01/25 00:38:33;;;;;;;20.23;11.60;;;-0.30;99.90;;;;;;5111998;28;20216;-75
2022/01/25 00:41:00;;;;;;;21.50;12.50;;;-0.20;99.90;;;;;;5112073;28;20186;-75
2022/01/25 00:43:27;;;;;;;26.60;12.52;;;-0.20;99.90;;;;;;5130497;28;20155;-75
2022/01/25 00:45:58;;;;;;;28.52;12.65;;;-0.30;99.90;;;;;;5130379;28;20254;-75
2022/01/25 00:49:01;;;;;;;24.35;11.68;;;-0.30;99.90;;;;;;5112042;28;20170;-75
2022/01/25 00:56:30;;;;;;;22.27;11.65;;;-0.20;99.90;;;;;;5109950;28;20160;-75
2022/01/25 00:59:01;;;;;;;26.27;11.45;;;-0.20;99.90;;;;;;5109755;28;20237;-75
2022/01/25 01:01:28;;;;;;;22.20;11.73;;;-0.20;99.90;;;;;;5121350;28;20222;-74
2022/01/25 01:03:54;;;;;;;19.27;10.45;;;-0.20;99.90;;;;;;5111238;28;20248;-76
2022/01/25 01:06:21;;;;;;;21.05;12.40;;;-0.30;99.90;;;;;;5129739;28;20155;-75
2022/01/25 01:08:47;;;;;;;22.98;11.38;;;-0.20;99.90;;;;;;5130226;28;20218;-75
2022/01/25 01:11:20;;;;;;;23.25;12.15;;;-0.30;99.90;;;;;;5111893;28;20167;-74
2022/01/25 01:14:00;;;;;;;20.33;10.40;;;-0.30;99.90;;;;;;5129863;28;20194;-75
2022/01/25 01:16:45;;;;;;;23.08;11.55;;;-0.30;99.90;;;;;;5093256;28;20178;-75
2022/01/25 01:38:38;;;;;;;19.08;11.38;;;-0.40;99.90;;;;;;5109384;28;20194;-76
2022/01/25 01:43:32;;;;;;;26.10;11.90;;;-0.50;99.90;;;;;;5123222;28;20182;-75
2022/01/25 01:48:59;;;;;;;22.50;11.55;;;-0.60;99.90;;;;;;5129926;28;20247;-76
2022/01/25 01:51:33;;;;;;;20.65;11.85;;;-0.60;99.90;;;;;;5129592;28;20151;-76
2022/01/25 01:54:09;;;;;;;18.52;10.25;;;-0.70;99.90;;;;;;5129615;28;20169;-76
2022/01/25 01:56:36;;;;;;;25.20;11.52;;;-0.70;99.90;;;;;;5111360;28;20166;-76
2022/01/25 01:59:08;;;;;;;24.10;11.32;;;-0.80;99.90;;;;;;5111070;28;20222;-76
2022/01/25 02:01:36;;;;;;;21.83;11.63;;;-0.80;99.90;;;;;;5129283;28;20234;-77
2022/01/25 02:04:05;;;;;;;24.27;11.60;;;-0.90;99.90;;;;;;5111177;28;20177;-78
2022/01/25 02:06:31;;;;;;;21.13;10.88;;;-0.90;99.90;;;;;;5111251;28;20166;-77
2022/01/25 02:08:57;;;;;;;19.73;11.15;;;-0.90;99.90;;;;;;5111130;28;20174;-77
2022/01/25 02:11:24;;;;;;;24.30;11.52;;;-0.90;99.90;;;;;;5111443;28;20174;-78
2022/01/25 02:13:51;;;;;;;18.98;9.80;;;-1.00;99.90;;;;;;5110853;28;20201;-77
2022/01/25 02:16:21;;;;;;;18.33;11.07;;;-1.00;99.90;;;;;;5131127;28;20166;-78
2022/01/25 02:24:18;;;;;;;21.55;10.30;;;-1.10;99.90;;;;;;5133119;28;20194;-78
2022/01/25 02:26:44;;;;;;;19.42;9.90;;;-1.20;99.90;;;;;;5133006;28;20154;-78
2022/01/25 02:29:10;;;;;;;22.85;12.10;;;-1.20;99.90;;;;;;5114483;28;20174;-75
2022/01/25 02:31:36;;;;;;;25.15;10.98;;;-1.30;99.90;;;;;;5132907;28;20254;-76
2022/01/25 02:34:01;;;;;;;22.83;11.40;;;-1.40;99.90;;;;;;5132784;28;20178;-77
2022/01/25 02:36:28;;;;;;;22.90;10.75;;;-1.40;99.90;;;;;;5114455;28;20166;-78
2022/01/25 02:38:55;;;;;;;22.63;11.18;;;-1.50;99.90;;;;;;5132794;28;20190;-76
2022/01/25 02:41:23;;;;;;;26.98;12.13;;;-1.60;99.90;;;;;;5114267;28;20177;-77
2022/01/25 02:43:52;;;;;;;19.35;11.23;;;-1.70;99.90;;;;;;5132560;28;20481;-76
2022/01/25 02:48:29;;;;;;;21.48;11.27;;;-1.80;99.90;;;;;;5132544;28;20155;-76
2022/01/25 02:49:10;;;;;;;19.92;9.65;;;-1.80;99.90;;;;;;5132262;28;20161;-76
2022/01/25 02:51:40;;;;;;;22.08;10.30;;;-1.90;99.90;;;;;;5114307;28;20163;-77
2022/01/25 02:54:08;;;;;;;18.50;9.93;;;-1.90;99.90;;;;;;5114000;28;20175;-75
2022/01/25 02:56:36;;;;;;;23.58;10.57;;;-2.00;99.90;;;;;;5132408;28;20159;-75
2022/01/25 02:59:04;;;;;;;19.48;10.85;;;-2.10;99.90;;;;;;5113956;28;20190;-76
2022/01/25 03:01:31;;;;;;;21.00;12.00;;;-2.10;99.90;;;;;;5132154;28;20210;-74
2022/01/25 03:03:57;;;;;;;25.27;10.68;;;-2.20;99.90;;;;;;5113659;28;20162;-75
2022/01/25 03:06:24;;;;;;;21.33;11.20;;;-2.20;99.90;;;;;;5132109;28;20205;-75
2022/01/25 03:08:52;;;;;;;25.95;12.02;;;-2.20;99.90;;;;;;5113793;28;20196;-75
2022/01/25 03:11:20;;;;;;;19.13;10.98;;;-2.20;99.90;;;;;;5132266;28;20158;-74
2022/01/25 03:13:54;;;;;;;25.83;11.18;;;-2.10;99.90;;;;;;5132186;28;20227;-76
2022/01/25 03:16:32;;;;;;;25.13;13.32;;;-2.10;99.90;;;;;;5113740;28;20176;-76
2022/01/25 03:19:02;;;;;;;21.73;12.50;;;-2.10;99.90;;;;;;5113660;28;20209;-74
2022/01/25 03:21:37;;;;;;;23.25;10.50;;;-2.10;99.90;;;;;;5112588;27;20727;-75
2022/01/25 03:24:06;;;;;;;17.73;10.15;;;-2.20;99.90;;;;;;5131817;28;20150;-75
2022/01/25 03:26:33;;;;;;;24.45;11.02;;;-2.20;99.90;;;;;;5131909;28;20155;-75
2022/01/25 03:29:00;;;;;;;20.05;10.18;;;-2.20;99.90;;;;;;5112730;28;20254;-75
2022/01/25 03:31:26;;;;;;;25.25;10.75;;;-2.30;99.90;;;;;;5113568;28;20226;-75
2022/01/25 03:33:52;;;;;;;19.70;10.57;;;-2.40;99.90;;;;;;5131834;28;20162;-75
2022/01/25 03:36:19;;;;;;;26.10;10.30;;;-2.40;99.90;;;;;;5131831;28;20162;-75
2022/01/25 03:38:48;;;;;;;22.90;12.88;;;-2.40;99.90;;;;;;5131781;28;20189;-75
2022/01/25 03:41:15;;;;;;;18.50;10.60;;;-2.50;99.90;;;;;;5131485;28;20179;-75
2022/01/25 03:43:43;;;;;;;19.83;10.60;;;-2.50;99.90;;;;;;5113068;28;20159;-76
2022/01/25 03:47:01;;;;;;;24.70;10.60;;;-2.50;99.90;;;;;;5131449;28;20210;-75
2022/01/25 03:51:40;;;;;;;20.15;10.77;;;-2.20;99.90;;;;;;5131466;28;20236;-75
2022/01/25 03:54:06;;;;;;;19.30;10.00;;;-2.10;99.90;;;;;;5113050;28;20159;-75
2022/01/25 03:56:32;;;;;;;27.00;12.43;;;-2.00;99.90;;;;;;5112888;28;20162;-75
2022/01/25 03:58:58;;;;;;;22.17;10.10;;;-2.00;99.90;;;;;;5112815;28;20263;-75
2022/01/25 04:01:24;;;;;;;21.75;12.68;;;-1.90;99.90;;;;;;5112584;28;20226;-74
2022/01/25 04:04:01;;;;;;;25.10;12.80;;;-2.00;99.90;;;;;;5131216;28;20159;-75
2022/01/25 04:06:30;;;;;;;22.10;12.77;;;-2.00;99.90;;;;;;5112837;28;20164;-75
2022/01/25 04:09:01;;;;;;;26.83;14.10;;;-2.10;99.90;;;;;;5131055;28;20154;-74
2022/01/25 04:11:27;;;;;;;27.38;14.07;;;-2.20;99.90;;;;;;5130982;28;20688;-75
2022/01/25 04:13:56;;;;;;;30.63;13.30;;;-2.20;99.90;;;;;;5112760;28;20163;-75
2022/01/25 04:16:33;;;;;;;28.65;14.60;;;-2.20;99.90;;;;;;5112499;28;20174;-75
2022/01/25 04:26:48;;;;;;;27.17;13.07;;;-2.40;99.90;;;;;;5130827;28;20181;-77
2022/01/25 04:29:15;;;;;;;27.63;13.23;;;-2.40;99.90;;;;;;5112429;28;20618;-77
2022/01/25 04:31:41;;;;;;;24.27;11.23;;;-2.60;99.90;;;;;;5112233;28;20218;-76
2022/01/25 04:50:15;;;;;;;42.70;15.43;;;-2.50;99.90;;;;;;5130147;28;20173;-77
2022/01/25 04:52:59;;;;;;;27.23;13.32;;;-2.40;99.90;;;;;;5130140;28;20194;-77
2022/01/25 04:55:28;;;;;;;23.40;12.63;;;-2.40;99.90;;;;;;5130074;28;20180;-77
2022/01/25 04:58:05;;;;;;;20.55;13.57;;;-2.50;99.90;;;;;;5111526;28;20260;-77
2022/01/25 05:00:32;;;;;;;22.13;12.40;;;-2.50;99.90;;;;;;5129849;28;20206;-78
2022/01/25 05:03:11;;;;;;;28.02;12.50;;;-2.50;99.90;;;;;;5111661;28;20193;-76
2022/01/25 05:05:55;;;;;;;24.45;12.15;;;-2.40;99.90;;;;;;5130074;28;20162;-75
2022/01/25 05:08:33;;;;;;;23.65;11.57;;;-2.40;99.90;;;;;;5129981;28;20155;-78
2022/01/25 05:13:50;;;;;;;25.55;12.95;;;-2.30;99.90;;;;;;5130002;28;20211;-77
2022/01/25 05:19:22;;;;;;;25.95;12.43;;;-2.20;99.90;;;;;;5129838;28;20202;-78
2022/01/25 05:24:30;;;;;;;28.00;14.45;;;-2.10;99.90;;;;;;5129737;28;20146;-76
2022/01/25 05:26:55;;;;;;;22.52;11.93;;;-2.10;99.90;;;;;;5129765;28;20161;-77
2022/01/25 05:29:21;;;;;;;22.65;12.98;;;-2.10;99.90;;;;;;5129647;28;20599;-77
2022/01/25 05:31:47;;;;;;;26.58;15.38;;;-2.10;99.90;;;;;;5129678;28;20555;-77
2022/01/25 05:34:14;;;;;;;26.50;15.20;;;-2.20;99.90;;;;;;5129668;28;20161;-75
2022/01/25 05:36:42;;;;;;;28.10;14.88;;;-2.20;99.90;;;;;;5129504;28;20228;-76
2022/01/25 05:39:13;;;;;;;37.70;18.58;;;-2.20;99.90;;;;;;5111005;28;20714;-76
2022/01/25 05:41:40;;;;;;;31.50;14.73;;;-2.10;99.90;;;;;;5129522;28;20187;-75
2022/01/25 05:46:48;;;;;;;27.63;14.07;;;-2.00;99.90;;;;;;5129378;28;20151;-75
2022/01/25 05:49:14;;;;;;;32.25;15.07;;;-1.90;99.90;;;;;;5111075;28;20170;-75
2022/01/25 05:51:40;;;;;;;26.70;13.73;;;-1.90;99.90;;;;;;5131496;28;20201;-75
2022/01/25 05:54:05;;;;;;;35.35;15.63;;;-1.90;99.90;;;;;;5133326;28;20607;-74
2022/01/25 05:56:31;;;;;;;29.98;15.00;;;-2.00;99.90;;;;;;5115155;28;20170;-75
2022/01/25 05:58:57;;;;;;;27.52;12.80;;;-1.90;99.90;;;;;;5133373;28;20186;-77
2022/01/25 06:01:23;;;;;;;39.88;15.75;;;-1.90;99.90;;;;;;5114652;28;20221;-75
2022/01/25 06:03:49;;;;;;;37.35;16.90;;;-1.90;99.90;;;;;;5114684;28;20246;-75
2022/01/25 06:06:15;;;;;;;39.03;15.88;;;-1.90;99.90;;;;;;5114832;28;20165;-77
2022/01/25 06:08:41;;;;;;;39.17;17.10;;;-1.90;99.90;;;;;;5114673;28;20181;-77
2022/01/25 06:11:09;;;;;;;33.08;15.65;;;-1.90;99.90;;;;;;5133256;28;20161;-75
2022/01/25 06:13:35;;;;;;;31.65;14.85;;;-1.90;99.90;;;;;;5114001;28;20205;-76
2022/01/25 06:16:01;;;;;;;46.55;13.93;;;-1.80;99.90;;;;;;5133114;28;20159;-79
2022/01/25 06:18:27;;;;;;;69.22;14.88;;;-1.80;99.90;;;;;;5133819;28;20209;-81
2022/01/25 06:20:53;;;;;;;29.80;15.45;;;-1.90;99.90;;;;;;5132920;28;20157;-79
2022/01/25 06:23:19;;;;;;;39.55;15.02;;;-1.90;99.90;;;;;;5132660;28;20186;-78
2022/01/25 06:25:44;;;;;;;37.17;15.25;;;-1.90;99.90;;;;;;5132552;28;20163;-78
2022/01/25 06:28:10;;;;;;;55.25;14.38;;;-1.90;99.90;;;;;;5114573;28;20175;-80
2022/01/25 06:30:36;;;;;;;52.28;14.60;;;-1.90;99.90;;;;;;5114175;28;20166;-79
2022/01/25 06:33:02;;;;;;;70.22;13.10;;;-1.80;99.90;;;;;;5113778;28;20194;-80
2022/01/25 06:35:30;;;;;;;45.67;14.70;;;-1.80;99.90;;;;;;5115045;28;20261;-79
2022/01/25 06:37:56;;;;;;;48.60;14.30;;;-1.80;99.90;;;;;;5132670;28;20205;-80
2022/01/25 06:40:24;;;;;;;37.17;12.02;;;-1.70;99.90;;;;;;5114363;28;20226;-81
2022/01/25 06:42:50;;;;;;;22.52;13.57;;;-1.70;99.90;;;;;;5133182;28;20210;-80
2022/01/25 06:45:19;;;;;;;39.33;14.23;;;-1.80;99.90;;;;;;5115537;28;20159;-80
2022/01/25 06:47:47;;;;;;;30.00;13.68;;;-2.00;99.90;;;;;;5115838;28;20508;-80
2022/01/25 06:50:15;;;;;;;60.78;15.00;;;-1.90;99.90;;;;;;5133622;28;20165;-79
2022/01/25 06:52:42;;;;;;;53.17;14.60;;;-1.80;99.90;;;;;;5114359;28;20201;-79
2022/01/25 06:55:11;;;;;;;37.42;13.18;;;-1.90;99.90;;;;;;5132970;28;20161;-80
2022/01/25 06:57:37;;;;;;;34.80;14.18;;;-1.90;99.90;;;;;;5133420;28;20209;-79
2022/01/25 07:00:16;;;;;;;29.20;13.07;;;-1.80;99.90;;;;;;5115008;28;20208;-80
2022/01/25 07:02:43;;;;;;;45.80;14.00;;;-1.80;99.90;;;;;;5112950;28;20197;-80
2022/01/25 07:05:10;;;;;;;31.77;13.10;;;-1.80;99.90;;;;;;5114858;28;20179;-80
2022/01/25 07:07:37;;;;;;;32.85;14.25;;;-1.70;99.90;;;;;;5114575;28;20170;-81
2022/01/25 07:10:04;;;;;;;30.52;15.60;;;-1.60;99.90;;;;;;5133128;28;20162;-80
2022/01/25 07:12:30;;;;;;;36.50;15.68;;;-1.70;99.90;;;;;;5132730;28;20205;-80
2022/01/25 07:14:56;;;;;;;33.25;13.88;;;-1.60;99.90;;;;;;5113678;28;20178;-82
2022/01/25 07:17:22;;;;;;;35.85;13.73;;;-1.60;99.90;;;;;;5132142;28;20254;-82
2022/01/25 07:19:48;;;;;;;25.13;14.55;;;-1.60;99.90;;;;;;5131932;28;20185;-80
2022/01/25 07:22:14;;;;;;;32.20;14.32;;;-1.60;99.90;;;;;;5113474;28;20198;-81
2022/01/25 07:24:40;;;;;;;33.03;15.90;;;-1.50;99.90;;;;;;5113691;28;20650;-80
2022/01/25 07:27:06;;;;;;;29.00;14.68;;;-1.50;99.90;;;;;;5113615;28;20173;-78
2022/01/25 07:29:33;;;;;;;30.27;14.85;;;-1.50;99.90;;;;;;5131961;28;20155;-82
2022/01/25 07:31:59;;;;;;;26.17;13.15;;;-1.50;99.90;;;;;;5124467;28;20213;-76
2022/01/25 07:34:26;;;;;;;39.95;13.40;;;-1.50;99.90;;;;;;5097974;28;20167;-83
2022/01/25 07:36:52;;;;;;;37.88;14.27;;;-1.40;99.90;;;;;;5128781;28;20163;-83
2022/01/25 07:39:18;;;;;;;28.95;13.32;;;-1.50;99.90;;;;;;5110706;28;20198;-78
2022/01/25 07:41:46;;;;;;;25.60;14.27;;;-1.40;99.90;;;;;;5110660;28;20186;-78
2022/01/25 07:44:13;;;;;;;26.27;14.77;;;-1.40;99.90;;;;;;5110598;28;20226;-82
2022/01/25 07:46:39;;;;;;;28.42;13.50;;;-1.50;99.90;;;;;;5091043;28;20191;-80
2022/01/25 07:49:06;;;;;;;41.60;15.75;;;-1.60;99.90;;;;;;5123419;28;20190;-76
2022/01/25 07:51:35;;;;;;;28.10;15.30;;;-1.70;99.90;;;;;;5113095;28;20202;-76
2022/01/25 07:54:01;;;;;;;29.27;14.25;;;-1.70;99.90;;;;;;5116679;27;20228;-81
2022/01/25 07:56:27;;;;;;;35.80;15.57;;;-1.60;99.90;;;;;;5151297;27;20159;-82
2022/01/25 07:58:53;;;;;;;27.98;13.15;;;-1.50;99.90;;;;;;5144727;27;20224;-80
2022/01/25 08:01:20;;;;;;;31.60;13.93;;;-1.70;99.90;;;;;;5136348;27;20241;-79
2022/01/25 08:03:46;;;;;;;27.95;13.98;;;-1.70;99.90;;;;;;5111693;28;20198;-79
2022/01/25 08:06:13;;;;;;;34.33;15.25;;;-1.50;99.90;;;;;;5107723;28;20257;-77
2022/01/25 08:08:40;;;;;;;31.23;13.85;;;-1.40;99.90;;;;;;5112550;28;20174;-81
2022/01/25 08:11:06;;;;;;;35.50;14.73;;;-1.30;99.90;;;;;;5112619;28;20179;-80
2022/01/25 08:13:32;;;;;;;34.55;14.73;;;-1.20;99.90;;;;;;5111795;28;20237;-79
2022/01/25 08:15:57;;;;;;;36.78;17.00;;;-1.10;99.90;;;;;;5130833;28;20159;-81
2022/01/25 08:18:23;;;;;;;34.45;14.85;;;-1.00;99.90;;;;;;5112418;28;20205;-80
2022/01/25 08:20:49;;;;;;;34.95;16.90;;;-1.10;99.90;;;;;;5112438;28;20158;-78
2022/01/25 08:23:15;;;;;;;34.60;15.73;;;-1.20;99.90;;;;;;5131219;28;20194;-77
2022/01/25 08:25:41;;;;;;;43.63;18.55;;;-0.80;99.90;;;;;;5130742;28;20155;-79
2022/01/25 08:28:07;;;;;;;39.53;16.73;;;-0.30;99.90;;;;;;5130795;28;20159;-80
2022/01/25 08:30:34;;;;;;;58.00;21.20;;;0.40;99.90;;;;;;5112387;28;20166;-80
2022/01/25 08:33:00;;;;;;;68.47;25.70;;;1.10;99.90;;;;;;5096810;28;20748;-78
2022/01/25 08:35:26;;;;;;;92.88;30.27;;;2.40;99.90;;;;;;5074330;28;20184;-78
2022/01/25 08:37:52;;;;;;;100.25;34.50;;;3.30;99.90;;;;;;5088047;28;20221;-79
2022/01/25 08:40:18;;;;;;;112.80;38.95;;;3.20;99.90;;;;;;5109512;28;20171;-77
2022/01/25 08:42:44;;;;;;;112.72;34.28;;;3.20;99.90;;;;;;5089854;28;20164;-79
2022/01/25 08:45:11;;;;;;;98.10;30.73;;;2.10;99.90;;;;;;5089860;28;20213;-79
2022/01/25 08:47:37;;;;;;;98.70;31.15;;;2.00;99.90;;;;;;5071754;28;20210;-78
2022/01/25 08:50:10;;;;;;;99.95;33.30;;;2.30;99.90;;;;;;5071556;28;20169;-77
2022/01/25 08:52:37;;;;;;;91.03;31.15;;;2.40;99.90;;;;;;5071553;28;20176;-80
2022/01/25 08:55:04;;;;;;;83.90;30.48;;;2.40;99.90;;;;;;5104611;28;20195;-79
2022/01/25 08:57:29;;;;;;;86.30;30.38;;;2.50;99.90;;;;;;5089491;28;20184;-81
2022/01/25 08:59:55;;;;;;;82.57;28.85;;;2.90;99.90;;;;;;5107796;28;20276;-78
2022/01/25 09:02:21;;;;;;;61.00;25.42;;;2.90;99.90;;;;;;5109249;28;20179;-79
2022/01/25 09:04:48;;;;;;;58.70;24.30;;;2.20;99.90;;;;;;5109441;28;20287;-81
2022/01/25 09:07:14;;;;;;;41.08;19.90;;;2.00;99.90;;;;;;5113441;27;20163;-80
2022/01/25 09:09:40;;;;;;;39.50;18.45;;;1.40;99.90;;;;;;5150353;27;20151;-80
2022/01/25 09:12:07;;;;;;;35.38;17.13;;;1.60;99.90;;;;;;5150391;27;20174;-80
2022/01/25 09:14:32;;;;;;;37.33;17.90;;;1.50;99.90;;;;;;5150068;27;20189;-81
2022/01/25 09:16:58;;;;;;;35.53;16.83;;;1.70;99.90;;;;;;5149706;27;20253;-81
2022/01/25 09:19:24;;;;;;;30.95;16.42;;;1.90;99.90;;;;;;5131452;27;20190;-80
2022/01/25 09:21:50;;;;;;;31.00;15.43;;;2.00;99.90;;;;;;5132027;27;20170;-81
2022/01/25 09:24:16;;;;;;;29.08;14.52;;;2.20;99.90;;;;;;5131656;27;20200;-80
2022/01/25 09:26:42;;;;;;;32.80;15.95;;;2.30;99.90;;;;;;5130762;27;20177;-81
2022/01/25 09:29:08;;;;;;;30.20;15.65;;;2.70;99.90;;;;;;5150252;27;20158;-79
2022/01/25 09:31:34;;;;;;;27.90;13.93;;;3.40;99.90;;;;;;5131695;28;20623;-78
2022/01/25 09:34:00;;;;;;;27.50;14.23;;;3.00;99.90;;;;;;5142522;28;20206;-80
2022/01/25 09:36:26;;;;;;;27.02;12.52;;;2.70;99.90;;;;;;5103913;28;20187;-80
2022/01/25 09:38:54;;;;;;;24.50;12.43;;;2.90;99.90;;;;;;5107724;28;20215;-79
2022/01/25 09:41:20;;;;;;;30.95;14.63;;;3.10;99.90;;;;;;5109161;28;20159;-80
2022/01/25 09:43:46;;;;;;;31.55;15.20;;;3.90;99.90;;;;;;5108846;28;20191;-74
2022/01/25 09:46:12;;;;;;;30.92;15.25;;;4.70;99.90;;;;;;5090719;28;20620;-76
2022/01/25 09:48:38;;;;;;;28.80;15.65;;;5.10;99.90;;;;;;5090609;28;20215;-77
2022/01/25 09:51:07;;;;;;;24.73;13.82;;;5.10;99.90;;;;;;5108408;28;20203;-75
2022/01/25 09:53:33;;;;;;;25.38;14.40;;;5.50;99.90;;;;;;5108584;28;20211;-76
2022/01/25 09:56:00;;;;;;;25.83;14.10;;;6.20;99.90;;;;;;5089628;28;20211;-76
2022/01/25 09:58:26;;;;;;;22.08;13.85;;;6.50;99.90;;;;;;5089605;28;20217;-77
2022/01/25 10:00:56;;;;;;;23.85;13.90;;;7.20;99.90;;;;;;5090150;28;20231;-76
2022/01/25 10:03:33;;;;;;;22.77;13.68;;;7.60;99.90;;;;;;5108513;28;20220;-76
2022/01/25 10:06:01;;;;;;;27.05;14.15;;;7.60;99.90;;;;;;5108809;28;20143;-76
2022/01/25 10:08:32;;;;;;;25.35;14.00;;;7.60;99.90;;;;;;5108671;28;20156;-76
2022/01/25 10:11:07;;;;;;;30.33;14.88;;;7.80;99.90;;;;;;5090498;28;20195;-76
2022/01/25 10:13:39;;;;;;;21.92;13.32;;;8.50;99.90;;;;;;5108712;28;20162;-77
2022/01/25 10:16:07;;;;;;;26.15;14.32;;;8.80;99.90;;;;;;5108540;28;20623;-76
2022/01/25 10:18:50;;;;;;;23.60;13.68;;;8.60;99.90;;;;;;5090171;28;20202;-78
2022/01/25 10:21:31;;;;;;;21.70;12.98;;;8.60;99.90;;;;;;5090450;28;20277;-75
2022/01/25 10:24:07;;;;;;;26.92;13.60;;;8.40;99.90;;;;;;5090340;28;20176;-74
2022/01/25 10:26:36;;;;;;;22.45;12.98;;;8.80;99.90;;;;;;5108476;28;20163;-75
2022/01/25 10:29:04;;;;;;;23.40;13.18;;;8.50;99.90;;;;;;5108332;28;20160;-75
2022/01/25 10:31:36;;;;;;;27.08;14.07;;;8.60;99.90;;;;;;5108223;28;20191;-75
2022/01/25 10:34:04;;;;;;;22.52;12.73;;;8.40;99.90;;;;;;5096578;28;20269;-75
2022/01/25 10:36:32;;;;;;;26.33;13.57;;;8.10;99.90;;;;;;5102774;28;20191;-76
2022/01/25 10:38:58;;;;;;;22.58;12.68;;;7.80;99.90;;;;;;5129816;28;20221;-77
2022/01/25 10:41:28;;;;;;;31.08;14.10;;;7.60;99.90;;;;;;5119194;27;20193;-76
2022/01/25 10:43:55;;;;;;;30.83;13.52;;;7.90;99.90;;;;;;5126809;27;20165;-75
2022/01/25 10:46:27;;;;;;;25.75;12.60;;;8.50;99.90;;;;;;5132435;27;20186;-77
2022/01/25 10:49:01;;;;;;;28.83;12.98;;;8.50;99.90;;;;;;5133375;27;20193;-77
2022/01/25 10:51:39;;;;;;;26.30;12.18;;;8.60;99.90;;;;;;5134015;27;20165;-77
2022/01/25 10:54:24;;;;;;;20.58;12.05;;;8.70;99.90;;;;;;5134684;27;20238;-77
2022/01/25 10:56:59;;;;;;;20.63;11.55;;;8.70;99.90;;;;;;5134482;27;20219;-76
2022/01/25 10:59:29;;;;;;;25.08;10.15;;;8.20;99.90;;;;;;5152716;27;20204;-76
2022/01/25 11:01:57;;;;;;;27.13;9.57;;;8.20;99.90;;;;;;5134015;27;20267;-76
2022/01/25 11:04:26;;;;;;;28.65;11.00;;;8.10;99.90;;;;;;5134318;27;20162;-76
2022/01/25 11:07:07;;;;;;;21.65;11.02;;;7.60;99.90;;;;;;5133983;27;20172;-75
2022/01/25 11:09:39;;;;;;;25.70;9.98;;;7.90;99.90;;;;;;5152588;27;20186;-76
2022/01/25 11:12:09;;;;;;;23.05;10.80;;;8.00;99.90;;;;;;5134005;27;20166;-76
2022/01/25 11:14:53;;;;;;;16.95;10.50;;;8.40;99.90;;;;;;5152479;27;20210;-76
2022/01/25 11:17:26;;;;;;;15.25;10.32;;;8.40;99.90;;;;;;5152334;27;20150;-76
2022/01/25 11:19:53;;;;;;;20.65;10.73;;;7.90;99.90;;;;;;5133427;27;20196;-75
2022/01/25 11:22:19;;;;;;;18.33;11.52;;;7.70;99.90;;;;;;5133631;27;20170;-75
2022/01/25 11:24:57;;;;;;;20.92;10.73;;;8.10;99.90;;;;;;5133639;27;20173;-76
2022/01/25 11:27:26;;;;;;;19.08;10.63;;;8.30;99.90;;;;;;5152194;27;20150;-76
2022/01/25 11:29:57;;;;;;;32.88;10.63;;;8.60;99.90;;;;;;5133430;27;20213;-76
2022/01/25 11:32:33;;;;;;;25.98;10.88;;;8.70;99.90;;;;;;5133393;27;20305;-75
2022/01/25 11:35:00;;;;;;;16.48;9.55;;;9.20;99.90;;;;;;5118997;28;20243;-75
2022/01/25 11:37:38;;;;;;;15.20;9.15;;;9.60;99.90;;;;;;5115497;28;20639;-75
2022/01/25 11:40:23;;;;;;;20.85;10.75;;;9.80;99.90;;;;;;5092465;28;20607;-74
2022/01/25 11:42:51;;;;;;;18.35;9.70;;;9.70;99.90;;;;;;5092277;28;20230;-75
2022/01/25 11:45:24;;;;;;;17.85;9.63;;;9.10;99.90;;;;;;5092620;28;20163;-75
2022/01/25 11:47:51;;;;;;;16.45;9.93;;;8.90;99.90;;;;;;5092254;28;20175;-75
2022/01/25 11:50:18;;;;;;;19.13;9.93;;;9.10;99.90;;;;;;5108608;28;20222;-76
2022/01/25 11:52:54;;;;;;;15.85;8.80;;;8.90;99.90;;;;;;5092056;28;20177;-77
2022/01/25 11:55:26;;;;;;;14.05;8.07;;;8.70;99.90;;;;;;5092317;28;20174;-76
2022/01/25 11:57:55;;;;;;;16.33;8.88;;;8.80;99.90;;;;;;5110262;28;20289;-77
2022/01/25 12:00:34;;;;;;;20.05;9.60;;;9.30;99.90;;;;;;5119075;28;20226;-75
2022/01/25 12:03:01;;;;;;;17.48;9.32;;;9.60;99.90;;;;;;5129167;28;20170;-75
2022/01/25 12:05:28;;;;;;;21.45;9.35;;;8.90;99.90;;;;;;5129655;28;20193;-77
2022/01/25 12:08:15;;;;;;;17.75;10.05;;;9.20;99.90;;;;;;5130911;28;20200;-76
2022/01/25 12:10:45;;;;;;;16.58;9.38;;;10.70;99.90;;;;;;5129072;28;20237;-77
2022/01/25 12:13:27;;;;;;;15.60;10.43;;;11.60;99.90;;;;;;5129269;28;20178;-77
2022/01/25 12:16:28;;;;;;;16.17;10.07;;;10.90;99.90;;;;;;5129189;28;20250;-76
2022/01/25 12:19:02;;;;;;;16.15;9.15;;;10.20;99.90;;;;;;5130016;28;20206;-76
2022/01/25 12:21:53;;;;;;;15.35;9.10;;;9.70;99.90;;;;;;5130594;28;20148;-76
2022/01/25 12:24:25;;;;;;;14.57;9.05;;;9.60;99.90;;;;;;5129098;28;20188;-76
2022/01/25 12:27:08;;;;;;;15.55;8.88;;;10.30;99.90;;;;;;5130544;28;20146;-75
2022/01/25 12:29:36;;;;;;;15.23;8.98;;;9.60;99.90;;;;;;5128817;28;20202;-75
2022/01/25 12:32:24;;;;;;;15.50;9.18;;;9.30;99.90;;;;;;5128805;28;20175;-76
2022/01/25 12:35:02;;;;;;;16.10;9.68;;;10.40;99.90;;;;;;5130180;28;20185;-76
2022/01/25 12:37:52;;;;;;;16.50;8.65;;;11.40;99.90;;;;;;5130002;28;20183;-76
2022/01/25 12:40:31;;;;;;;18.08;9.20;;;11.40;99.90;;;;;;5111476;28;20190;-75
2022/01/25 12:43:03;;;;;;;17.60;9.55;;;10.70;99.90;;;;;;5129909;28;20154;-76
2022/01/25 12:45:35;;;;;;;14.75;8.70;;;8.80;99.90;;;;;;5127425;28;20191;-77
2022/01/25 12:48:13;;;;;;;18.20;9.23;;;8.00;99.90;;;;;;5129659;28;20180;-76
2022/01/25 12:50:41;;;;;;;21.92;9.25;;;7.10;99.90;;;;;;5094539;28;20568;-77
2022/01/25 12:53:09;;;;;;;14.48;9.15;;;6.70;99.90;;;;;;5111524;28;20215;-77
2022/01/25 12:55:40;;;;;;;20.30;9.40;;;6.00;99.90;;;;;;5129744;28;20190;-77
2022/01/25 12:58:06;;;;;;;21.60;9.30;;;5.90;99.90;;;;;;5129570;28;20233;-77
2022/01/25 13:00:41;;;;;;;16.33;8.98;;;5.70;99.90;;;;;;5110662;28;20230;-76
2022/01/25 13:03:11;;;;;;;19.23;9.40;;;5.80;99.90;;;;;;5126989;28;20547;-76
2022/01/25 13:05:52;;;;;;;16.25;9.77;;;5.90;99.90;;;;;;5111262;28;20175;-75
2022/01/25 13:08:43;;;;;;;18.98;8.10;;;5.70;99.90;;;;;;5110905;28;20181;-76
2022/01/25 13:11:49;;;;;;;21.27;9.18;;;5.60;99.90;;;;;;5110689;28;20178;-76
2022/01/25 13:16:59;;;;;;;14.65;7.75;;;5.60;99.90;;;;;;5127612;28;20170;-76
2022/01/25 13:19:49;;;;;;;16.00;7.15;;;5.50;99.90;;;;;;5094843;28;20235;-78
2022/01/25 13:22:19;;;;;;;12.82;7.13;;;5.50;99.90;;;;;;5110883;28;20167;-76
2022/01/25 13:25:11;;;;;;;19.00;7.88;;;5.40;99.90;;;;;;5110585;28;20261;-76
2022/01/25 13:27:48;;;;;;;13.30;6.65;;;5.60;99.90;;;;;;5102953;28;20188;-76
2022/01/25 13:33:00;;;;;;;9.25;5.13;;;5.30;99.90;;;;;;5128896;28;20209;-75
2022/01/25 13:35:33;;;;;;;10.98;6.45;;;5.40;99.90;;;;;;5129067;28;20174;-79
2022/01/25 13:38:11;;;;;;;15.73;5.90;;;5.40;99.90;;;;;;5110585;28;20205;-76
2022/01/25 13:46:29;;;;;;;20.95;7.13;;;5.10;99.90;;;;;;5040127;28;20193;-83
2022/01/25 13:49:01;;;;;;;15.95;7.13;;;5.30;99.90;;;;;;5029286;28;20602;-82
2022/01/25 13:51:29;;;;;;;12.48;6.95;;;5.20;99.90;;;;;;5029379;28;20312;-76
2022/01/25 13:54:00;;;;;;;11.43;5.85;;;5.20;99.90;;;;;;5029406;28;20181;-76
2022/01/25 13:56:30;;;;;;;10.35;6.95;;;5.20;99.90;;;;;;5046105;28;20189;-76
2022/01/25 13:58:57;;;;;;;11.55;5.75;;;5.30;99.90;;;;;;5028969;28;20213;-77
2022/01/25 14:01:27;;;;;;;7.72;4.80;;;5.20;99.90;;;;;;5045915;28;20221;-75
2022/01/25 14:03:55;;;;;;;6.10;3.92;;;5.00;99.90;;;;;;5045798;28;20185;-77
2022/01/25 14:06:27;;;;;;;6.57;3.95;;;4.90;99.90;;;;;;5029304;28;20696;-76
2022/01/25 14:09:02;;;;;;;6.88;4.03;;;4.80;99.90;;;;;;5045671;28;20228;-75
2022/01/25 14:21:40;;;;;;;6.95;3.95;;;4.90;99.90;;;;;;5082672;28;20182;-74
2022/01/25 14:25:40;;;;;;;8.05;4.07;;;4.70;99.90;;;;;;5132466;28;20175;-75
2022/01/25 14:28:22;;;;;;;7.65;3.95;;;4.60;99.90;;;;;;5113895;28;20170;-76
2022/01/25 14:30:51;;;;;;;8.00;4.80;;;4.60;99.90;;;;;;5115302;28;20190;-75
2022/01/25 14:33:30;;;;;;;6.35;4.40;;;4.60;99.90;;;;;;5093463;28;20187;-77
2022/01/25 14:36:00;;;;;;;7.65;3.78;;;4.60;99.90;;;;;;5108919;28;20175;-76
2022/01/25 14:38:32;;;;;;;8.15;4.40;;;4.60;99.90;;;;;;5091046;28;20194;-76
2022/01/25 14:41:05;;;;;;;8.98;4.88;;;4.50;99.90;;;;;;5107158;28;20199;-77
2022/01/25 14:43:35;;;;;;;10.63;4.85;;;4.50;99.90;;;;;;5093293;28;20329;-77
2022/01/25 14:46:07;;;;;;;7.85;4.97;;;4.50;99.90;;;;;;5111443;28;20176;-76
2022/01/25 14:48:36;;;;;;;9.23;4.97;;;4.40;99.90;;;;;;5119543;28;20169;-75
2022/01/25 14:51:05;;;;;;;9.02;5.47;;;4.30;99.90;;;;;;5131009;28;20159;-75